Time;durP1;ratioP1;P1;durP2;ratioP2;P2;SDS_P1;SDS_P2;PMS_P1;PMS_P2;Temp;Humidity;BMP_temperature;BMP_pressure;BME280_temperature;BME280_humidity;BME280_pressure;Samples;Min_cycle;Max_cycle;Signal;HPM_P1;HPM_P2
2022/06/22 00:01:28;;;;;;;1.23;1.13;;;23.80;99.90;;;;;;5080536;28;20207;-65
2022/06/22 00:03:59;;;;;;;1.40;1.30;;;23.80;99.90;;;;;;5087304;28;20751;-64
2022/06/22 00:06:32;;;;;;;1.55;1.33;;;23.80;99.90;;;;;;5081667;28;20195;-64
2022/06/22 00:09:01;;;;;;;1.45;1.35;;;23.70;99.90;;;;;;5084159;28;20882;-64
2022/06/22 00:11:28;;;;;;;1.30;1.30;;;23.80;99.90;;;;;;5082804;28;20290;-64
2022/06/22 00:13:57;;;;;;;1.10;1.10;;;23.80;99.90;;;;;;5084121;28;20314;-64
2022/06/22 00:16:28;;;;;;;1.52;1.42;;;23.80;99.90;;;;;;5079787;28;20211;-64
2022/06/22 00:18:57;;;;;;;1.50;1.40;;;23.70;99.90;;;;;;5078572;28;20745;-64
2022/06/22 00:21:33;;;;;;;1.15;1.15;;;23.80;99.90;;;;;;5078447;28;20211;-64
2022/06/22 00:24:01;;;;;;;1.30;1.20;;;23.70;99.90;;;;;;5082343;28;20631;-64
2022/06/22 00:26:32;;;;;;;1.20;1.20;;;23.70;99.90;;;;;;5082730;28;20213;-64
2022/06/22 00:29:20;;;;;;;1.30;1.30;;;23.70;99.90;;;;;;5089821;28;20586;-65
2022/06/22 00:32:14;;;;;;;1.23;1.10;;;23.60;99.90;;;;;;5082880;28;20213;-64
2022/06/22 00:34:41;;;;;;;1.17;1.17;;;23.50;99.90;;;;;;5082608;28;20248;-64
2022/06/22 00:37:15;;;;;;;1.20;1.20;;;23.60;99.90;;;;;;5082846;28;20210;-65
2022/06/22 00:39:44;;;;;;;1.17;1.17;;;23.60;99.90;;;;;;5082581;28;20230;-64
2022/06/22 00:42:30;;;;;;;1.40;1.30;;;23.60;99.90;;;;;;5083017;28;20201;-63
2022/06/22 00:45:02;;;;;;;1.27;1.20;;;23.60;99.90;;;;;;5076608;28;20277;-64
2022/06/22 00:47:33;;;;;;;1.00;1.00;;;23.60;99.90;;;;;;5080862;28;20286;-64
2022/06/22 00:50:08;;;;;;;1.20;1.20;;;23.50;99.90;;;;;;5083991;28;20623;-64
2022/06/22 00:52:38;;;;;;;1.40;1.30;;;23.60;99.90;;;;;;5083374;28;20320;-64
2022/06/22 00:55:17;;;;;;;1.25;1.25;;;23.60;99.90;;;;;;5089741;28;20317;-64
2022/06/22 00:57:49;;;;;;;1.40;1.30;;;23.60;99.90;;;;;;5084891;28;20294;-64
2022/06/22 01:00:20;;;;;;;1.25;1.15;;;23.60;99.90;;;;;;5080698;28;20203;-65
2022/06/22 01:02:53;;;;;;;1.20;1.20;;;23.60;99.90;;;;;;5087160;28;20226;-65
2022/06/22 01:05:25;;;;;;;1.67;1.58;;;23.60;99.90;;;;;;5071148;28;20561;-65
2022/06/22 01:08:01;;;;;;;2.80;2.20;;;23.40;99.90;;;;;;5087533;28;20203;-65
2022/06/22 01:10:35;;;;;;;2.00;1.90;;;23.30;99.90;;;;;;5079617;28;20309;-64
2022/06/22 01:13:09;;;;;;;1.63;1.52;;;23.30;99.90;;;;;;5082690;28;20241;-63
2022/06/22 01:15:41;;;;;;;2.15;1.95;;;23.30;99.90;;;;;;5081431;28;20345;-63
2022/06/22 01:18:13;;;;;;;1.80;1.70;;;23.30;99.90;;;;;;5075972;28;20209;-68
2022/06/22 01:20:53;;;;;;;1.73;1.63;;;23.10;99.90;;;;;;5085161;28;20298;-63
2022/06/22 01:23:54;;;;;;;1.65;1.55;;;22.90;99.90;;;;;;5092016;28;20298;-64
2022/06/22 01:26:49;;;;;;;1.92;1.75;;;22.80;99.90;;;;;;5089326;28;20195;-64
2022/06/22 01:29:20;;;;;;;1.30;1.30;;;22.70;99.90;;;;;;5085009;28;20203;-64
2022/06/22 01:31:59;;;;;;;1.70;1.60;;;22.80;99.90;;;;;;5085666;28;20634;-65
2022/06/22 01:34:31;;;;;;;1.30;1.30;;;22.80;99.90;;;;;;5078663;28;20681;-64
2022/06/22 01:37:02;;;;;;;1.67;1.58;;;22.80;99.90;;;;;;5085687;28;20213;-64
2022/06/22 01:39:29;;;;;;;1.70;1.60;;;22.70;99.90;;;;;;5078441;28;20210;-65
2022/06/22 01:42:00;;;;;;;1.50;1.40;;;22.70;99.90;;;;;;5080935;28;20207;-64
2022/06/22 01:44:34;;;;;;;1.90;1.80;;;22.70;99.90;;;;;;5082334;28;20198;-64
2022/06/22 01:47:24;;;;;;;1.55;1.45;;;22.70;99.90;;;;;;5081130;28;20194;-63
2022/06/22 01:49:58;;;;;;;1.70;1.60;;;22.70;99.90;;;;;;5080994;28;20756;-64
2022/06/22 01:52:48;;;;;;;2.10;1.77;;;22.70;99.90;;;;;;5081808;28;20221;-65
2022/06/22 01:55:21;;;;;;;1.58;1.48;;;22.70;99.90;;;;;;5081935;28;20207;-63
2022/06/22 01:57:56;;;;;;;1.80;1.70;;;22.70;99.90;;;;;;5075667;28;20198;-65
2022/06/22 02:00:25;;;;;;;1.70;1.60;;;22.60;99.90;;;;;;5082227;28;20194;-64
2022/06/22 02:02:57;;;;;;;1.60;1.50;;;22.60;99.90;;;;;;5080032;28;20768;-65
2022/06/22 02:05:28;;;;;;;1.88;1.70;;;22.60;99.90;;;;;;5084582;28;20191;-65
2022/06/22 02:08:02;;;;;;;1.70;1.60;;;22.60;99.90;;;;;;5080024;28;20276;-64
2022/06/22 02:10:40;;;;;;;1.48;1.48;;;22.60;99.90;;;;;;5079308;28;20290;-65
2022/06/22 02:13:22;;;;;;;1.80;1.70;;;22.60;99.90;;;;;;5078625;28;20225;-64
2022/06/22 02:15:56;;;;;;;1.70;1.60;;;22.60;99.90;;;;;;5079370;28;20226;-63
2022/06/22 02:18:33;;;;;;;1.40;1.40;;;22.60;99.90;;;;;;5084569;28;20287;-64
2022/06/22 02:21:08;;;;;;;1.45;1.45;;;22.60;99.90;;;;;;5074220;28;20226;-65
2022/06/22 02:23:38;;;;;;;1.42;1.38;;;22.60;99.90;;;;;;5082082;28;20393;-63
2022/06/22 02:26:12;;;;;;;1.40;1.40;;;22.60;99.90;;;;;;5081588;28;20205;-63
2022/06/22 02:28:40;;;;;;;1.40;1.40;;;22.60;99.90;;;;;;5081668;28;20279;-64
2022/06/22 02:31:09;;;;;;;1.60;1.50;;;22.60;99.90;;;;;;5077374;28;20198;-64
2022/06/22 02:33:38;;;;;;;1.67;1.57;;;22.60;99.90;;;;;;5081039;28;20255;-64
2022/06/22 02:36:06;;;;;;;1.50;1.40;;;22.60;99.90;;;;;;5081478;28;20206;-64
2022/06/22 02:38:33;;;;;;;1.50;1.40;;;22.60;99.90;;;;;;5085592;28;20205;-63
2022/06/22 02:46:35;;;;;;;1.70;1.60;;;22.60;99.90;;;;;;5081648;28;20222;-63
2022/06/22 02:49:07;;;;;;;1.40;1.38;;;22.60;99.90;;;;;;5089770;28;20493;-64
2022/06/22 02:51:40;;;;;;;1.70;1.60;;;22.60;99.90;;;;;;5082816;28;20199;-63
2022/06/22 02:54:17;;;;;;;1.90;1.75;;;22.60;99.90;;;;;;5082461;28;20681;-64
2022/06/22 02:56:45;;;;;;;1.95;1.85;;;22.60;99.90;;;;;;5092064;28;21837;-64
2022/06/22 02:59:12;;;;;;;2.05;1.70;;;22.50;99.90;;;;;;5094047;28;20271;-63
2022/06/22 03:01:41;;;;;;;1.65;1.55;;;22.50;99.90;;;;;;5094367;28;20202;-65
2022/06/22 03:04:11;;;;;;;1.95;1.85;;;22.40;99.90;;;;;;5086124;28;20218;-64
2022/06/22 03:06:43;;;;;;;1.70;1.60;;;22.40;99.90;;;;;;5091651;28;20209;-64
2022/06/22 03:09:10;;;;;;;1.25;1.25;;;22.50;99.90;;;;;;5086520;28;20668;-64
2022/06/22 03:11:41;;;;;;;1.40;1.40;;;22.40;99.90;;;;;;5091137;28;20213;-64
2022/06/22 03:14:18;;;;;;;1.30;1.30;;;22.40;99.90;;;;;;5085877;28;20275;-63
2022/06/22 03:16:50;;;;;;;1.60;1.50;;;22.40;99.90;;;;;;5091434;28;20205;-64
2022/06/22 03:19:20;;;;;;;1.85;1.75;;;22.50;99.90;;;;;;5086712;28;20276;-64
2022/06/22 03:21:48;;;;;;;1.42;1.40;;;22.50;99.90;;;;;;5091036;28;20292;-64
2022/06/22 03:24:24;;;;;;;1.50;1.48;;;22.50;99.90;;;;;;5092376;28;20224;-63
2022/06/22 03:26:56;;;;;;;1.63;1.52;;;22.50;99.90;;;;;;5101447;22;20225;-64
2022/06/22 03:29:27;;;;;;;1.80;1.70;;;22.30;99.90;;;;;;5057304;28;20228;-63
2022/06/22 03:32:01;;;;;;;1.40;1.40;;;22.10;99.90;;;;;;5051787;28;20236;-64
2022/06/22 03:34:34;;;;;;;1.60;1.50;;;22.00;99.90;;;;;;5053082;28;20282;-62
2022/06/22 03:37:06;;;;;;;1.60;1.50;;;22.00;99.90;;;;;;5056437;28;20287;-63
2022/06/22 03:39:37;;;;;;;1.67;1.58;;;21.90;99.90;;;;;;5051181;28;20196;-63
2022/06/22 03:42:08;;;;;;;1.67;1.58;;;21.90;99.90;;;;;;5053327;28;20295;-63
2022/06/22 03:44:39;;;;;;;1.80;1.70;;;21.80;99.90;;;;;;5050058;28;20287;-63
2022/06/22 03:47:13;;;;;;;1.73;1.63;;;21.80;99.90;;;;;;5050625;28;20254;-63
2022/06/22 03:49:46;;;;;;;1.30;1.30;;;21.80;99.90;;;;;;5055018;28;20210;-63
2022/06/22 03:52:17;;;;;;;1.90;1.80;;;21.80;99.90;;;;;;5050479;28;20287;-64
2022/06/22 03:54:49;;;;;;;1.55;1.55;;;21.70;99.90;;;;;;5054265;28;20246;-65
2022/06/22 03:57:22;;;;;;;1.63;1.52;;;21.80;99.90;;;;;;5048558;28;20592;-65
2022/06/22 03:59:49;;;;;;;1.90;1.80;;;21.80;99.90;;;;;;5054107;28;20323;-65
2022/06/22 04:02:19;;;;;;;2.00;1.90;;;21.80;99.90;;;;;;5050384;28;20631;-64
2022/06/22 04:04:50;;;;;;;1.70;1.60;;;21.80;99.90;;;;;;5055262;28;20228;-63
2022/06/22 04:07:17;;;;;;;1.67;1.57;;;21.90;99.90;;;;;;5049584;28;20694;-66
2022/06/22 04:09:52;;;;;;;1.70;1.60;;;21.90;99.90;;;;;;5051624;28;20359;-64
2022/06/22 04:12:24;;;;;;;1.90;1.80;;;21.90;99.90;;;;;;5050456;28;20686;-64
2022/06/22 04:14:57;;;;;;;1.80;1.70;;;21.90;99.90;;;;;;5049894;28;20220;-65
2022/06/22 04:17:35;;;;;;;1.33;1.30;;;21.90;99.90;;;;;;5054088;28;20223;-64
2022/06/22 04:20:15;;;;;;;1.63;1.52;;;22.00;99.90;;;;;;5051334;28;20657;-63
2022/06/22 04:22:46;;;;;;;1.38;1.33;;;22.20;99.90;;;;;;5058352;28;20204;-63
2022/06/22 04:25:23;;;;;;;1.52;1.42;;;22.40;99.90;;;;;;5053012;28;20615;-65
2022/06/22 04:27:52;;;;;;;3.55;1.60;;;22.50;99.90;;;;;;5058827;28;20299;-64
2022/06/22 04:30:22;;;;;;;1.27;1.27;;;22.70;99.90;;;;;;5069892;28;20235;-66
2022/06/22 04:33:00;;;;;;;2.67;1.85;;;22.60;99.90;;;;;;5058197;28;20235;-65
2022/06/22 04:35:34;;;;;;;1.60;1.50;;;22.50;99.90;;;;;;5056342;28;20306;-65
2022/06/22 04:38:10;;;;;;;1.67;1.58;;;22.40;99.90;;;;;;5062196;28;20603;-66
2022/06/22 04:40:48;;;;;;;1.60;1.50;;;22.30;99.90;;;;;;5054376;28;20295;-66
2022/06/22 04:43:15;;;;;;;1.50;1.50;;;22.20;99.90;;;;;;5046290;28;20291;-66
2022/06/22 04:45:44;;;;;;;1.70;1.60;;;22.10;99.90;;;;;;5052700;28;20284;-67
2022/06/22 04:48:17;;;;;;;1.35;1.35;;;22.30;99.90;;;;;;5049170;28;20869;-65
2022/06/22 04:50:46;;;;;;;1.40;1.40;;;22.50;99.90;;;;;;5051432;28;20671;-64
2022/06/22 04:53:27;;;;;;;1.55;1.48;;;22.70;99.90;;;;;;5048922;28;20635;-65
2022/06/22 04:55:55;;;;;;;1.42;1.42;;;22.70;99.90;;;;;;5049198;28;20228;-65
2022/06/22 04:58:31;;;;;;;1.70;1.60;;;22.70;99.90;;;;;;5052291;28;20304;-66
2022/06/22 05:00:59;;;;;;;1.45;1.40;;;22.80;99.90;;;;;;5049027;28;20207;-65
2022/06/22 05:03:29;;;;;;;1.60;1.50;;;22.80;99.90;;;;;;5052185;28;20215;-63
2022/06/22 05:05:59;;;;;;;1.50;1.40;;;22.90;99.90;;;;;;5047307;28;20204;-63
2022/06/22 05:08:31;;;;;;;1.67;1.50;;;22.90;99.90;;;;;;5057625;28;20315;-64
2022/06/22 05:11:04;;;;;;;1.40;1.40;;;23.00;99.90;;;;;;5050310;28;20246;-64
2022/06/22 05:13:34;;;;;;;1.40;1.40;;;23.00;99.90;;;;;;5051226;28;20200;-63
2022/06/22 05:16:05;;;;;;;1.35;1.35;;;22.90;99.90;;;;;;5060707;28;20230;-64
2022/06/22 05:18:36;;;;;;;1.55;1.45;;;22.70;99.90;;;;;;5065955;28;20195;-63
2022/06/22 05:21:11;;;;;;;1.60;1.50;;;22.70;99.90;;;;;;5066240;28;20208;-69
2022/06/22 05:23:39;;;;;;;1.40;1.40;;;22.70;99.90;;;;;;5066616;28;20207;-67
2022/06/22 05:26:09;;;;;;;1.73;1.60;;;22.70;99.90;;;;;;5065097;28;20230;-67
2022/06/22 05:28:39;;;;;;;1.85;1.75;;;22.50;99.90;;;;;;5063046;28;20704;-67
2022/06/22 05:31:10;;;;;;;1.70;1.60;;;22.30;99.90;;;;;;5052718;28;20283;-67
2022/06/22 05:33:42;;;;;;;2.08;1.90;;;22.20;99.90;;;;;;5052799;28;20227;-67
2022/06/22 05:36:11;;;;;;;2.20;2.10;;;22.10;99.90;;;;;;5044565;28;20256;-68
2022/06/22 05:38:41;;;;;;;1.90;1.80;;;22.00;99.90;;;;;;5049592;28;20208;-67
2022/06/22 05:41:11;;;;;;;2.10;2.00;;;21.90;99.90;;;;;;5049525;28;20292;-68
2022/06/22 05:43:39;;;;;;;2.10;2.00;;;21.80;99.90;;;;;;5047992;28;20261;-67
2022/06/22 05:46:07;;;;;;;3.60;2.00;;;21.80;99.90;;;;;;5044956;28;20192;-68
2022/06/22 05:48:41;;;;;;;2.00;1.90;;;21.80;99.90;;;;;;5052527;28;20204;-67
2022/06/22 05:51:18;;;;;;;1.95;1.85;;;21.80;99.90;;;;;;5044344;28;20203;-67
2022/06/22 05:53:50;;;;;;;1.90;1.80;;;21.90;99.90;;;;;;5052415;28;20577;-67
2022/06/22 05:56:23;;;;;;;1.85;1.75;;;21.90;99.90;;;;;;5048798;28;20314;-67
2022/06/22 05:58:54;;;;;;;2.00;1.80;;;21.90;99.90;;;;;;5049354;28;20296;-67
2022/06/22 06:01:29;;;;;;;2.00;1.90;;;21.90;99.90;;;;;;5045033;28;20205;-68
2022/06/22 06:04:02;;;;;;;2.10;2.00;;;22.10;99.90;;;;;;5038062;28;20290;-67
2022/06/22 06:06:37;;;;;;;2.00;1.90;;;22.20;99.90;;;;;;5046232;28;20224;-68
2022/06/22 06:09:19;;;;;;;1.90;1.80;;;22.30;99.90;;;;;;5054446;28;20196;-67
2022/06/22 06:11:49;;;;;;;1.83;1.73;;;22.40;99.90;;;;;;5060563;28;20743;-68
2022/06/22 06:14:24;;;;;;;1.90;1.80;;;22.30;99.90;;;;;;5044858;28;20275;-67
2022/06/22 06:16:53;;;;;;;1.90;1.80;;;22.40;99.90;;;;;;5050346;28;20284;-66
2022/06/22 06:19:23;;;;;;;2.03;1.92;;;22.40;99.90;;;;;;5053507;28;20231;-68
2022/06/22 06:21:54;;;;;;;2.17;2.00;;;22.40;99.90;;;;;;5056285;28;20665;-68
2022/06/22 06:24:27;;;;;;;2.13;2.03;;;22.40;99.90;;;;;;5048405;28;20238;-68
2022/06/22 06:29:50;;;;;;;2.10;2.00;;;22.50;99.90;;;;;;5048303;28;20215;-68
2022/06/22 06:32:27;;;;;;;2.00;1.90;;;22.50;99.90;;;;;;5052395;28;20299;-68
2022/06/22 06:34:57;;;;;;;2.35;2.15;;;22.60;99.90;;;;;;5047702;28;20731;-68
2022/06/22 06:37:44;;;;;;;1.90;1.80;;;22.70;99.90;;;;;;5046552;28;20319;-67
2022/06/22 06:40:15;;;;;;;2.00;1.90;;;22.70;99.90;;;;;;5050239;28;20265;-67
2022/06/22 06:42:50;;;;;;;1.90;1.80;;;22.70;99.90;;;;;;5046754;28;20646;-66
2022/06/22 06:45:21;;;;;;;1.90;1.80;;;22.80;99.90;;;;;;5050281;28;20196;-68
2022/06/22 06:47:51;;;;;;;2.20;2.10;;;22.90;99.90;;;;;;5037482;28;20743;-67
2022/06/22 06:50:23;;;;;;;2.00;1.90;;;22.90;99.90;;;;;;5043621;28;20210;-66
2022/06/22 06:52:57;;;;;;;1.85;1.75;;;23.10;99.90;;;;;;5041243;28;20205;-68
2022/06/22 06:55:31;;;;;;;2.15;2.00;;;23.10;99.90;;;;;;5042457;28;20314;-66
2022/06/22 06:58:03;;;;;;;1.80;1.70;;;23.10;99.90;;;;;;5051223;28;20219;-68
2022/06/22 07:00:31;;;;;;;1.90;1.80;;;23.10;99.90;;;;;;5050523;28;20288;-68
2022/06/22 07:02:59;;;;;;;1.88;1.77;;;23.20;99.90;;;;;;5052334;28;20268;-68
2022/06/22 07:05:28;;;;;;;2.45;2.25;;;23.20;99.90;;;;;;5058564;28;20301;-68
2022/06/22 07:08:02;;;;;;;2.50;2.40;;;23.40;99.90;;;;;;5046730;28;20252;-68
2022/06/22 07:10:34;;;;;;;1.90;1.80;;;23.50;99.90;;;;;;5043226;28;20315;-67
2022/06/22 07:13:04;;;;;;;1.55;1.52;;;23.60;99.90;;;;;;5046153;28;20208;-67
2022/06/22 07:15:37;;;;;;;1.75;1.65;;;23.70;99.90;;;;;;5047923;28;20309;-67
2022/06/22 07:18:24;;;;;;;1.80;1.70;;;23.80;99.90;;;;;;5050960;28;20316;-68
2022/06/22 07:20:56;;;;;;;1.75;1.65;;;23.90;99.90;;;;;;5053104;28;20286;-68
2022/06/22 07:23:30;;;;;;;1.65;1.55;;;24.00;99.90;;;;;;5055602;28;20208;-68
2022/06/22 07:26:01;;;;;;;1.48;1.40;;;24.10;99.90;;;;;;5056015;28;20260;-68
2022/06/22 07:28:32;;;;;;;1.40;1.40;;;24.20;99.90;;;;;;5056678;28;20293;-68
2022/06/22 07:31:05;;;;;;;1.45;1.35;;;24.20;99.90;;;;;;5055507;28;20579;-66
2022/06/22 07:33:36;;;;;;;1.17;1.17;;;24.30;99.90;;;;;;5059914;28;20204;-69
2022/06/22 07:36:10;;;;;;;1.85;1.42;;;24.30;99.90;;;;;;5055046;28;20286;-68
2022/06/22 07:38:46;;;;;;;1.70;1.60;;;24.40;99.90;;;;;;5055393;28;20286;-68
2022/06/22 07:41:22;;;;;;;1.63;1.52;;;24.40;99.90;;;;;;5045716;28;20295;-67
2022/06/22 07:43:54;;;;;;;1.67;1.58;;;24.40;99.90;;;;;;5049654;28;20229;-66
2022/06/22 07:46:28;;;;;;;1.30;1.25;;;24.40;99.90;;;;;;5053415;28;20350;-68
2022/06/22 07:49:00;;;;;;;1.42;1.40;;;24.50;99.90;;;;;;5049317;28;20203;-68
2022/06/22 07:51:30;;;;;;;1.88;1.77;;;24.40;99.90;;;;;;5053571;28;20207;-67
2022/06/22 07:54:04;;;;;;;2.00;1.90;;;24.30;99.90;;;;;;5049782;28;20785;-68
2022/06/22 07:56:41;;;;;;;2.00;1.90;;;24.20;99.90;;;;;;5052905;28;20318;-68
2022/06/22 07:59:12;;;;;;;1.90;1.80;;;24.20;99.90;;;;;;5048954;28;20204;-70
2022/06/22 08:01:41;;;;;;;2.00;1.90;;;24.20;99.90;;;;;;5053949;28;20232;-68
2022/06/22 08:04:16;;;;;;;2.30;2.20;;;24.10;99.90;;;;;;5052657;28;20643;-68
2022/06/22 08:06:48;;;;;;;2.00;1.90;;;23.90;99.90;;;;;;5052444;28;20319;-68
2022/06/22 08:09:21;;;;;;;2.40;2.30;;;23.90;99.90;;;;;;5056684;28;20223;-69
2022/06/22 08:11:52;;;;;;;2.40;2.17;;;23.80;99.90;;;;;;5051059;28;20204;-67
2022/06/22 08:14:24;;;;;;;2.42;2.33;;;23.80;99.90;;;;;;5053776;28;20203;-69
2022/06/22 08:16:57;;;;;;;2.50;2.30;;;23.80;99.90;;;;;;5048603;28;20793;-68
2022/06/22 08:19:27;;;;;;;2.80;2.60;;;23.70;99.90;;;;;;5054852;28;20200;-68
2022/06/22 08:21:58;;;;;;;2.75;2.65;;;23.60;99.90;;;;;;5052559;28;20212;-69
2022/06/22 08:24:28;;;;;;;2.13;2.03;;;23.60;99.90;;;;;;5050717;28;20216;-68
2022/06/22 08:26:57;;;;;;;2.58;2.47;;;23.60;99.90;;;;;;5051218;28;20317;-68
2022/06/22 08:29:24;;;;;;;2.65;2.45;;;23.50;99.90;;;;;;5049582;28;20294;-69
2022/06/22 08:31:59;;;;;;;2.85;2.65;;;23.50;99.90;;;;;;5051832;28;20212;-68
2022/06/22 08:34:33;;;;;;;2.42;2.22;;;23.40;99.90;;;;;;5048537;28;20299;-67
2022/06/22 08:37:06;;;;;;;2.22;2.13;;;23.30;99.90;;;;;;5047588;28;20313;-69
2022/06/22 08:39:39;;;;;;;2.33;2.22;;;23.20;99.90;;;;;;5051507;28;20200;-67
2022/06/22 08:42:16;;;;;;;2.20;2.10;;;23.30;99.90;;;;;;5045683;28;20210;-68
2022/06/22 08:44:59;;;;;;;2.20;2.10;;;23.30;99.90;;;;;;5053202;28;20253;-67
2022/06/22 08:47:50;;;;;;;1.98;1.88;;;23.50;99.90;;;;;;5047623;28;20879;-68
2022/06/22 08:50:34;;;;;;;2.25;2.10;;;23.60;99.90;;;;;;5049577;28;20204;-67
2022/06/22 08:53:17;;;;;;;2.45;2.30;;;23.60;99.90;;;;;;5051252;28;20215;-68
2022/06/22 08:56:00;;;;;;;2.55;2.35;;;23.70;99.90;;;;;;5061577;28;20204;-70
2022/06/22 08:58:43;;;;;;;2.25;2.15;;;23.60;99.90;;;;;;5049884;28;20240;-69
2022/06/22 09:01:20;;;;;;;2.20;2.10;;;23.60;99.90;;;;;;5043190;28;20624;-68
2022/06/22 09:04:18;;;;;;;2.20;2.10;;;23.60;99.90;;;;;;5051603;28;20242;-67
2022/06/22 09:07:08;;;;;;;1.85;1.75;;;23.70;99.90;;;;;;5054130;28;20311;-68
2022/06/22 09:10:11;;;;;;;1.92;1.70;;;23.60;99.90;;;;;;5050980;28;20200;-67
2022/06/22 09:12:56;;;;;;;1.85;1.60;;;23.40;99.90;;;;;;5055926;28;20190;-68
2022/06/22 09:15:36;;;;;;;1.65;1.55;;;23.30;99.90;;;;;;5060690;28;20204;-67
2022/06/22 09:18:39;;;;;;;2.17;1.55;;;23.40;99.90;;;;;;5050373;28;20254;-67
2022/06/22 09:21:20;;;;;;;1.70;1.60;;;23.40;99.90;;;;;;5027879;28;20291;-67
2022/06/22 09:24:01;;;;;;;1.95;1.60;;;23.30;99.90;;;;;;5048353;28;20215;-67
2022/06/22 09:26:36;;;;;;;1.73;1.53;;;23.20;99.90;;;;;;5073897;22;20216;-64
2022/06/22 09:29:14;;;;;;;1.67;1.50;;;23.20;99.90;;;;;;5054231;22;20281;-66
2022/06/22 09:32:08;;;;;;;1.80;1.70;;;23.20;99.90;;;;;;5053325;28;20200;-65
2022/06/22 09:35:03;;;;;;;2.05;1.60;;;23.10;99.90;;;;;;5045214;28;20204;-64
2022/06/22 09:37:53;;;;;;;1.70;1.60;;;23.00;99.90;;;;;;5047700;28;20219;-64
2022/06/22 09:40:32;;;;;;;1.83;1.70;;;23.00;99.90;;;;;;5045927;28;20295;-64
2022/06/22 09:43:40;;;;;;;1.70;1.60;;;23.10;99.90;;;;;;5051838;28;20232;-63
2022/06/22 09:46:53;;;;;;;2.72;1.60;;;23.10;99.90;;;;;;5043128;28;20211;-63
2022/06/22 09:49:44;;;;;;;1.92;1.40;;;23.20;99.90;;;;;;4985502;28;20229;-64
2022/06/22 09:52:26;;;;;;;1.83;1.70;;;23.30;99.90;;;;;;5044336;28;20206;-65
2022/06/22 09:58:18;;;;;;;2.35;1.70;;;23.50;99.90;;;;;;5050626;28;20239;-64
2022/06/22 10:00:50;;;;;;;1.90;1.80;;;23.50;99.90;;;;;;5052094;28;20200;-64
2022/06/22 10:03:35;;;;;;;2.67;2.00;;;23.60;99.90;;;;;;5047180;28;20228;-64
2022/06/22 10:06:33;;;;;;;2.40;1.85;;;23.60;99.90;;;;;;5050714;28;20686;-65
2022/06/22 10:09:25;;;;;;;2.15;1.70;;;23.50;99.90;;;;;;5051704;28;20262;-66
2022/06/22 10:12:03;;;;;;;1.73;1.63;;;23.50;99.90;;;;;;5047774;28;20265;-63
2022/06/22 10:15:12;;;;;;;1.80;1.53;;;23.50;99.90;;;;;;5050522;28;20254;-63
2022/06/22 10:18:04;;;;;;;1.60;1.50;;;23.40;99.90;;;;;;4988030;28;20225;-64
2022/06/22 10:20:41;;;;;;;1.80;1.70;;;23.30;99.90;;;;;;4987409;28;20349;-63
2022/06/22 10:23:21;;;;;;;2.03;1.70;;;23.30;99.90;;;;;;4992020;28;20202;-65
2022/06/22 10:26:10;;;;;;;1.98;1.65;;;23.30;99.90;;;;;;4991438;28;20209;-65
2022/06/22 10:29:14;;;;;;;1.95;1.75;;;23.30;99.90;;;;;;4990134;28;20296;-65
2022/06/22 10:32:03;;;;;;;2.28;2.08;;;23.30;99.90;;;;;;4990732;28;20626;-65
2022/06/22 10:34:43;;;;;;;2.60;1.83;;;23.30;99.90;;;;;;4984954;28;20201;-65
2022/06/22 10:37:27;;;;;;;1.80;1.70;;;23.30;99.90;;;;;;4981690;28;20253;-65
2022/06/22 10:40:12;;;;;;;1.70;1.60;;;23.20;99.90;;;;;;4992760;28;20210;-64
2022/06/22 10:45:45;;;;;;;1.80;1.70;;;23.00;99.90;;;;;;4986517;28;20217;-64
2022/06/22 10:48:54;;;;;;;2.00;1.90;;;22.90;99.90;;;;;;5007051;28;20216;-63
2022/06/22 10:51:28;;;;;;;2.75;1.90;;;22.80;99.90;;;;;;5044864;28;20658;-64
2022/06/22 10:54:26;;;;;;;2.07;1.70;;;22.80;99.90;;;;;;5050928;28;20245;-65
2022/06/22 10:57:13;;;;;;;2.73;1.90;;;22.70;99.90;;;;;;5053894;28;20320;-65
2022/06/22 11:00:04;;;;;;;1.83;1.73;;;22.70;99.90;;;;;;5054539;28;20387;-64
2022/06/22 11:03:18;;;;;;;2.15;1.88;;;22.70;99.90;;;;;;5050204;28;20196;-64
2022/06/22 11:06:13;;;;;;;3.60;2.07;;;22.70;99.90;;;;;;5053367;28;20293;-66
2022/06/22 11:09:05;;;;;;;2.78;1.88;;;22.70;99.90;;;;;;5055145;28;20199;-65
2022/06/22 11:11:59;;;;;;;2.60;2.13;;;22.80;99.90;;;;;;5049764;28;20223;-65
2022/06/22 11:14:55;;;;;;;1.70;1.60;;;22.80;99.90;;;;;;5046407;28;20250;-64
2022/06/22 11:17:39;;;;;;;2.42;2.22;;;22.90;99.90;;;;;;5051328;28;20309;-63
2022/06/22 11:20:35;;;;;;;2.45;2.25;;;22.90;99.90;;;;;;5054339;28;20196;-64
2022/06/22 11:23:10;;;;;;;2.88;2.20;;;23.10;99.90;;;;;;5053912;28;20204;-63
2022/06/22 11:32:33;;;;;;;2.40;2.00;;;23.20;99.90;;;;;;5051535;28;20262;-63
2022/06/22 11:35:26;;;;;;;2.20;2.00;;;23.20;99.90;;;;;;5054863;28;20731;-64
2022/06/22 11:38:06;;;;;;;2.05;1.88;;;23.20;99.90;;;;;;5051791;28;20630;-62
2022/06/22 11:40:47;;;;;;;2.10;1.90;;;23.20;99.90;;;;;;5048311;28;20199;-65
2022/06/22 11:43:45;;;;;;;2.20;2.10;;;23.20;99.90;;;;;;5053879;28;20200;-63
2022/06/22 11:46:18;;;;;;;2.38;2.00;;;23.30;99.90;;;;;;5045086;28;20576;-65
2022/06/22 11:49:21;;;;;;;2.33;2.00;;;23.40;99.90;;;;;;5042954;28;20207;-65
2022/06/22 11:52:38;;;;;;;2.20;2.00;;;23.50;99.90;;;;;;5038920;28;20215;-63
2022/06/22 11:55:22;;;;;;;2.13;2.00;;;23.80;99.90;;;;;;5044402;28;20584;-63
2022/06/22 11:58:27;;;;;;;2.60;1.98;;;24.10;99.90;;;;;;5050838;28;20318;-65
2022/06/22 12:01:14;;;;;;;2.40;2.17;;;24.20;99.90;;;;;;5052991;28;20204;-63
2022/06/22 12:04:05;;;;;;;3.00;2.40;;;24.20;99.90;;;;;;5054288;28;20204;-64
2022/06/22 12:06:47;;;;;;;2.88;2.20;;;24.30;99.90;;;;;;5052908;28;20223;-63
2022/06/22 12:09:32;;;;;;;2.55;2.00;;;24.30;99.90;;;;;;5054101;28;20228;-64
2022/06/22 12:12:39;;;;;;;2.50;1.88;;;24.40;99.90;;;;;;5054967;28;20191;-65
2022/06/22 12:15:19;;;;;;;2.33;1.95;;;24.40;99.90;;;;;;5061139;28;20227;-64
2022/06/22 12:17:58;;;;;;;2.78;2.47;;;24.40;99.90;;;;;;5060190;28;20223;-63
2022/06/22 12:20:36;;;;;;;2.38;1.98;;;24.40;99.90;;;;;;5054843;28;20283;-64
2022/06/22 12:23:13;;;;;;;2.40;2.03;;;24.50;99.90;;;;;;5059629;28;20574;-62
2022/06/22 12:25:56;;;;;;;2.58;1.92;;;24.50;99.90;;;;;;5060887;28;20239;-64
2022/06/22 12:28:35;;;;;;;2.38;1.85;;;24.60;99.90;;;;;;5056551;28;20219;-62
2022/06/22 12:31:09;;;;;;;2.38;2.10;;;24.60;99.90;;;;;;5052884;28;20228;-62
2022/06/22 12:33:40;;;;;;;3.25;2.40;;;24.70;99.90;;;;;;5059815;28;20296;-63
2022/06/22 12:36:14;;;;;;;2.60;2.40;;;24.80;99.90;;;;;;5041405;28;20196;-63
2022/06/22 12:38:45;;;;;;;2.00;1.80;;;24.80;99.90;;;;;;5057251;28;20251;-63
2022/06/22 12:41:24;;;;;;;2.22;2.03;;;24.90;99.90;;;;;;5056245;28;20223;-63
2022/06/22 12:44:19;;;;;;;2.40;2.20;;;24.90;99.90;;;;;;5059108;28;20261;-63
2022/06/22 12:47:04;;;;;;;2.63;2.33;;;24.90;99.90;;;;;;5055958;28;20234;-63
2022/06/22 12:49:46;;;;;;;2.47;2.20;;;24.90;99.90;;;;;;5056519;28;20208;-63
2022/06/22 12:52:19;;;;;;;1.80;1.70;;;24.70;99.90;;;;;;5047622;28;20208;-65
2022/06/22 12:54:52;;;;;;;2.03;1.80;;;24.80;99.90;;;;;;5050496;28;20212;-63
2022/06/22 12:57:23;;;;;;;2.15;1.95;;;24.80;99.90;;;;;;5047620;28;20545;-63
2022/06/22 12:59:54;;;;;;;2.00;1.90;;;24.80;99.90;;;;;;5058037;28;20205;-63
2022/06/22 13:02:27;;;;;;;2.70;2.05;;;24.90;99.90;;;;;;5042189;28;20212;-64
2022/06/22 13:05:01;;;;;;;2.20;2.00;;;24.90;99.90;;;;;;5050405;28;20204;-63
2022/06/22 13:07:33;;;;;;;4.67;2.00;;;25.00;99.90;;;;;;5047318;28;20231;-64
2022/06/22 13:10:00;;;;;;;2.20;2.00;;;25.00;99.90;;;;;;5045754;28;20202;-64
2022/06/22 13:12:32;;;;;;;2.28;2.05;;;25.00;99.90;;;;;;5045424;28;20274;-65
2022/06/22 13:15:04;;;;;;;2.67;2.40;;;24.90;99.90;;;;;;5046394;28;20207;-64
2022/06/22 13:17:38;;;;;;;3.28;2.10;;;25.00;99.90;;;;;;5054672;28;20236;-68
2022/06/22 13:20:23;;;;;;;3.65;2.20;;;25.00;99.90;;;;;;5062341;28;20249;-65
2022/06/22 13:22:58;;;;;;;2.38;2.10;;;25.10;99.90;;;;;;5062249;28;20730;-65
2022/06/22 13:25:35;;;;;;;1.83;1.73;;;25.20;99.90;;;;;;5055311;28;20980;-64
2022/06/22 13:28:12;;;;;;;2.17;1.98;;;25.20;99.90;;;;;;5064037;28;20215;-64
2022/06/22 13:30:44;;;;;;;2.05;1.85;;;25.40;99.90;;;;;;5054884;28;20269;-64
2022/06/22 13:33:15;;;;;;;2.05;1.85;;;25.50;99.90;;;;;;5052513;28;20666;-65
2022/06/22 13:35:47;;;;;;;2.47;1.90;;;25.70;99.90;;;;;;5057552;28;20215;-64
2022/06/22 13:38:35;;;;;;;3.13;1.90;;;25.80;99.90;;;;;;5061634;28;20250;-64
2022/06/22 13:41:17;;;;;;;2.22;1.65;;;25.90;99.90;;;;;;5062673;28;20341;-65
2022/06/22 13:44:00;;;;;;;1.83;1.70;;;26.00;99.90;;;;;;5059076;28;20200;-64
2022/06/22 13:46:47;;;;;;;1.90;1.70;;;26.30;99.90;;;;;;5057516;28;20230;-64
2022/06/22 13:49:24;;;;;;;1.98;1.77;;;26.40;99.90;;;;;;5055060;28;20196;-65
2022/06/22 13:52:15;;;;;;;1.80;1.70;;;26.40;99.90;;;;;;5056532;28;20208;-66
2022/06/22 13:55:23;;;;;;;2.13;1.80;;;26.40;99.90;;;;;;5049289;28;20203;-64
2022/06/22 13:57:56;;;;;;;1.40;1.30;;;26.40;99.90;;;;;;5052981;28;20847;-64
2022/06/22 14:00:28;;;;;;;2.13;1.55;;;26.30;99.90;;;;;;5055482;28;20203;-65